Time;durP1;ratioP1;P1;durP2;ratioP2;P2;SDS_P1;SDS_P2;PMS_P1;PMS_P2;Temp;Humidity;BMP_temperature;BMP_pressure;BME280_temperature;BME280_humidity;BME280_pressure;Samples;Min_cycle;Max_cycle;Signal;HPM_P1;HPM_P2
2022/11/16 00:01:31;;;;;;;;;;;;;;;6.74;100.00;99837.03;5590968;31;34628;-75
2022/11/16 00:04:37;;;;;;;;;;;;;;;6.68;100.00;99831.59;5591118;31;34133;-75
2022/11/16 00:07:43;;;;;;;;;;;;;;;6.67;100.00;99832.56;5590866;31;35013;-75
2022/11/16 00:10:48;;;;;;;;;;;;;;;6.65;100.00;99830.06;5590589;31;34593;-75
2022/11/16 00:13:55;;;;;;;;;;;;;;;6.68;100.00;99827.13;5590653;31;34272;-75
2022/11/16 00:17:00;;;;;;;;;;;;;;;6.64;100.00;99823.16;5577099;31;33481;-75
2022/11/16 00:20:06;;;;;;;;;;;;;;;6.67;100.00;99822.03;5590710;31;34307;-75
2022/11/16 00:23:14;;;;;;;;;;;;;;;6.68;100.00;99819.22;5590739;31;34748;-75
2022/11/16 00:26:20;;;;;;;;;;;;;;;6.63;100.00;99818.87;5577095;31;34954;-75
2022/11/16 00:29:28;;;;;;;;;;;;;;;6.73;100.00;99824.03;5577396;31;34202;-74
2022/11/16 00:32:35;;;;;;;;;;;;;;;6.77;100.00;99810.37;5577468;31;34804;-75
2022/11/16 00:35:42;;;;;;;;;;;;;;;6.78;100.00;99806.75;5590648;31;34256;-74
2022/11/16 00:38:52;;;;;;;;;;;;;;;6.82;100.00;99805.47;5590735;31;34343;-74
2022/11/16 00:42:00;;;;;;;;;;;;;;;6.82;100.00;99804.66;5576789;31;35456;-74
2022/11/16 00:45:07;;;;;;;;;;;;;;;6.87;100.00;99791.81;5576321;31;34514;-75
2022/11/16 00:48:13;;;;;;;;;;;;;;;6.83;100.00;99787.81;5590850;31;34196;-74
2022/11/16 00:51:22;;;;;;;;;;;;;;;6.83;100.00;99779.91;5590526;31;34863;-75
2022/11/16 00:54:28;;;;;;;;;;;;;;;6.83;100.00;99774.63;5590450;31;34847;-75
2022/11/16 00:57:36;;;;;;;;;;;;;;;6.73;100.00;99777.41;5590191;31;34399;-75
2022/11/16 01:00:44;;;;;;;;;;;;;;;6.65;100.00;99777.38;5590286;31;34925;-75
2022/11/16 01:03:52;;;;;;;;;;;;;;;6.58;100.00;99775.53;5590384;31;34625;-75
2022/11/16 01:07:02;;;;;;;;;;;;;;;6.62;100.00;99767.16;5590503;31;34315;-75
2022/11/16 01:10:15;;;;;;;;;;;;;;;6.63;100.00;99763.53;5590202;31;34725;-75
2022/11/16 01:13:23;;;;;;;;;;;;;;;6.69;100.00;99770.78;5590146;31;35242;-75
2022/11/16 01:16:32;;;;;;;;;;;;;;;6.64;100.00;99757.25;5590307;31;34200;-75
2022/11/16 01:19:40;;;;;;;;;;;;;;;6.75;100.00;99746.44;5576733;31;34974;-74
2022/11/16 01:22:46;;;;;;;;;;;;;;;6.71;100.00;99745.12;5590162;31;34215;-75
2022/11/16 01:26:00;;;;;;;;;;;;;;;6.68;100.00;99742.78;5577323;31;34404;-74
2022/11/16 01:29:08;;;;;;;;;;;;;;;6.68;100.00;99741.97;5575924;31;35336;-74
2022/11/16 01:32:16;;;;;;;;;;;;;;;6.76;100.00;99739.38;5590272;31;34306;-76
2022/11/16 01:35:23;;;;;;;;;;;;;;;6.73;100.00;99727.31;5590156;31;34938;-75
2022/11/16 01:38:32;;;;;;;;;;;;;;;6.70;100.00;99725.00;5590166;31;34290;-75
2022/11/16 01:41:40;;;;;;;;;;;;;;;6.71;100.00;99724.03;5590067;31;34453;-75
2022/11/16 01:44:46;;;;;;;;;;;;;;;6.75;100.00;99720.09;5589841;31;34433;-75
2022/11/16 01:47:54;;;;;;;;;;;;;;;6.67;100.00;99709.53;5576002;31;33764;-75
2022/11/16 01:51:02;;;;;;;;;;;;;;;6.64;100.00;99701.91;5575695;31;32401;-75
2022/11/16 01:54:12;;;;;;;;;;;;;;;6.72;100.00;99701.97;5589976;31;34318;-74
2022/11/16 01:57:24;;;;;;;;;;;;;;;6.75;100.00;99691.09;5589935;31;34594;-75
2022/11/16 02:00:30;;;;;;;;;;;;;;;6.71;100.00;99689.75;5575671;31;34541;-75
2022/11/16 02:03:39;;;;;;;;;;;;;;;6.69;100.00;99688.25;5589743;31;34299;-75
2022/11/16 02:07:05;;;;;;;;;;;;;;;6.69;100.00;99686.44;5589711;31;34257;-75
2022/11/16 02:10:18;;;;;;;;;;;;;;;6.69;100.00;99690.88;5588474;31;34250;-75
2022/11/16 02:13:40;;;;;;;;;;;;;;;6.71;100.00;99681.84;5575128;31;32994;-76
2022/11/16 02:17:03;;;;;;;;;;;;;;;6.68;100.00;99679.50;5589471;31;35080;-76
2022/11/16 02:20:28;;;;;;;;;;;;;;;6.69;100.00;99675.06;5589684;31;34966;-76
2022/11/16 02:23:50;;;;;;;;;;;;;;;6.68;100.00;99673.44;5589538;31;34295;-76
2022/11/16 02:27:05;;;;;;;;;;;;;;;6.65;100.00;99671.94;5589508;31;34290;-77
2022/11/16 02:30:13;;;;;;;;;;;;;;;6.64;100.00;99665.00;5589236;31;34966;-76
2022/11/16 02:33:22;;;;;;;;;;;;;;;6.60;100.00;99653.16;5589485;31;34287;-76
2022/11/16 02:36:28;;;;;;;;;;;;;;;6.61;100.00;99657.44;5575510;31;37899;-76
2022/11/16 02:39:33;;;;;;;;;;;;;;;6.59;100.00;99653.28;5589362;31;34797;-76
2022/11/16 02:42:44;;;;;;;;;;;;;;;6.61;100.00;99651.34;5589230;31;34917;-76
2022/11/16 02:45:54;;;;;;;;;;;;;;;6.62;100.00;99643.28;5589168;31;34283;-77
2022/11/16 02:49:07;;;;;;;;;;;;;;;6.61;100.00;99646.91;5588965;31;35086;-77
2022/11/16 02:52:16;;;;;;;;;;;;;;;6.59;100.00;99633.03;5588981;31;34199;-77
2022/11/16 02:55:25;;;;;;;;;;;;;;;6.61;100.00;99635.53;5589029;31;34455;-76
2022/11/16 02:58:31;;;;;;;;;;;;;;;6.62;100.00;99630.09;5588974;31;34695;-76
2022/11/16 03:01:41;;;;;;;;;;;;;;;6.72;100.00;99624.69;5574683;31;35055;-76
2022/11/16 03:04:50;;;;;;;;;;;;;;;6.73;100.00;99623.72;5575204;31;32614;-76
2022/11/16 03:08:12;;;;;;;;;;;;;;;6.78;100.00;99622.22;5588709;31;34829;-76
2022/11/16 03:14:45;;;;;;;;;;;;;;;6.79;100.00;99613.31;5588600;31;34176;-76
2022/11/16 03:17:55;;;;;;;;;;;;;;;6.80;100.00;99616.78;5588701;31;34515;-76
2022/11/16 03:21:09;;;;;;;;;;;;;;;6.77;100.00;99617.12;5562520;31;33498;-76
2022/11/16 03:24:15;;;;;;;;;;;;;;;6.78;100.00;99609.03;5591295;31;33844;-76
2022/11/16 03:27:43;;;;;;;;;;;;;;;6.74;100.00;99607.72;5577495;31;33188;-76
2022/11/16 03:31:01;;;;;;;;;;;;;;;6.74;100.00;99604.25;5591093;31;34852;-76
2022/11/16 03:34:12;;;;;;;;;;;;;;;6.73;100.00;99605.25;5564483;31;32890;-76
2022/11/16 03:37:18;;;;;;;;;;;;;;;6.76;100.00;99597.00;5577282;31;34453;-76
2022/11/16 03:40:26;;;;;;;;;;;;;;;6.76;100.00;99591.75;5591110;31;34822;-76
2022/11/16 03:43:32;;;;;;;;;;;;;;;6.84;100.00;99592.56;5591309;31;34139;-76
2022/11/16 03:46:40;;;;;;;;;;;;;;;6.85;100.00;99588.13;5591105;31;34809;-76
2022/11/16 03:49:47;;;;;;;;;;;;;;;6.87;100.00;99584.31;5590928;31;34174;-76
2022/11/16 03:52:59;;;;;;;;;;;;;;;6.84;100.00;99579.38;5576311;31;33181;-76
2022/11/16 03:56:05;;;;;;;;;;;;;;;6.85;100.00;99575.78;5576776;31;34823;-76
2022/11/16 03:59:14;;;;;;;;;;;;;;;6.92;100.00;99574.13;5591199;31;34964;-76
2022/11/16 04:02:23;;;;;;;;;;;;;;;6.95;100.00;99572.97;5590972;31;34260;-76
2022/11/16 04:26:11;;;;;;;;;;;;;;;6.97;100.00;99539.38;5590689;31;34459;-76
2022/11/16 04:29:17;;;;;;;;;;;;;;;6.89;100.00;99531.44;5590492;31;34971;-76
2022/11/16 04:39:25;;;;;;;;;;;;;;;6.87;100.00;99539.50;5590640;31;34718;-76
2022/11/16 04:42:32;;;;;;;;;;;;;;;6.86;100.00;99531.78;5590638;31;34630;-76
2022/11/16 04:49:07;;;;;;;;;;;;;;;6.91;100.00;99530.31;5590457;31;34216;-76
2022/11/16 04:52:15;;;;;;;;;;;;;;;6.83;100.00;99525.00;5576411;31;32815;-76
2022/11/16 04:55:19;;;;;;;;;;;;;;;6.92;100.00;99529.28;5563390;31;33476;-76
2022/11/16 04:58:26;;;;;;;;;;;;;;;6.96;100.00;99527.16;5590314;31;35101;-76
2022/11/16 05:04:57;;;;;;;;;;;;;;;6.87;100.00;99522.88;5590393;31;34813;-76
2022/11/16 05:08:04;;;;;;;;;;;;;;;6.82;100.00;99519.94;5576460;31;35630;-76
2022/11/16 05:11:13;;;;;;;;;;;;;;;6.83;100.00;99526.81;5576462;31;32803;-76
2022/11/16 05:14:20;;;;;;;;;;;;;;;6.83;100.00;99521.53;5590267;31;34673;-76
2022/11/16 05:17:27;;;;;;;;;;;;;;;6.90;100.00;99530.47;5590343;31;34597;-76
2022/11/16 05:27:26;;;;;;;;;;;;;;;6.93;100.00;99509.84;5590245;31;34313;-76
2022/11/16 05:30:35;;;;;;;;;;;;;;;6.90;100.00;99514.63;5590039;31;34671;-75
2022/11/16 05:33:43;;;;;;;;;;;;;;;6.92;100.00;99508.19;5590051;31;34508;-75
2022/11/16 05:36:49;;;;;;;;;;;;;;;6.84;100.00;99508.22;5590135;31;34270;-75
2022/11/16 05:39:56;;;;;;;;;;;;;;;6.89;100.00;99494.53;5576522;31;34219;-76
2022/11/16 05:43:01;;;;;;;;;;;;;;;6.90;100.00;99499.66;5576435;31;33573;-75
2022/11/16 05:46:05;;;;;;;;;;;;;;;6.80;100.00;99491.06;5589867;31;34357;-75
2022/11/16 05:49:10;;;;;;;;;;;;;;;6.81;100.00;99494.53;5590006;31;34274;-75
2022/11/16 05:52:15;;;;;;;;;;;;;;;6.91;100.00;99487.28;5589904;31;34341;-75
2022/11/16 05:55:19;;;;;;;;;;;;;;;6.98;100.00;99480.34;5575969;31;32644;-74
2022/11/16 05:58:22;;;;;;;;;;;;;;;6.98;100.00;99477.72;5589567;31;34980;-75
2022/11/16 06:01:27;;;;;;;;;;;;;;;6.94;100.00;99473.75;5576211;31;35043;-74
2022/11/16 06:04:33;;;;;;;;;;;;;;;6.99;100.00;99472.28;5589750;31;34328;-75
2022/11/16 06:07:35;;;;;;;;;;;;;;;7.02;100.00;99476.38;5589719;31;34869;-74
2022/11/16 06:10:39;;;;;;;;;;;;;;;6.97;100.00;99470.81;5575295;31;32850;-74
2022/11/16 06:13:42;;;;;;;;;;;;;;;6.95;100.00;99467.50;5589384;31;34259;-74
2022/11/16 06:16:45;;;;;;;;;;;;;;;7.00;100.00;99470.47;5589463;31;34389;-74
2022/11/16 06:19:48;;;;;;;;;;;;;;;6.93;100.00;99464.19;5589568;31;34722;-73
2022/11/16 06:22:51;;;;;;;;;;;;;;;6.92;100.00;99473.13;5575832;31;34121;-73
2022/11/16 06:25:54;;;;;;;;;;;;;;;6.87;100.00;99470.16;5589395;31;34864;-74
2022/11/16 06:28:57;;;;;;;;;;;;;;;6.87;100.00;99473.59;5574895;31;33735;-74
2022/11/16 06:32:00;;;;;;;;;;;;;;;7.02;100.00;99476.38;5588776;31;34410;-74
2022/11/16 06:35:03;;;;;;;;;;;;;;;7.06;100.00;99474.25;5589116;31;34836;-74
2022/11/16 06:38:06;;;;;;;;;;;;;;;7.06;100.00;99474.25;5589027;31;34730;-74
2022/11/16 06:41:09;;;;;;;;;;;;;;;7.11;100.00;99478.03;5575040;31;34923;-74
2022/11/16 06:44:12;;;;;;;;;;;;;;;7.04;100.00;99473.59;5574683;31;34108;-73
2022/11/16 06:47:16;;;;;;;;;;;;;;;7.06;100.00;99472.44;5574523;31;34994;-74
2022/11/16 06:50:19;;;;;;;;;;;;;;;7.03;100.00;99464.84;5589127;31;34298;-74
2022/11/16 06:53:23;;;;;;;;;;;;;;;7.04;100.00;99468.31;5574529;31;36163;-73
2022/11/16 06:56:33;;;;;;;;;;;;;;;7.06;100.00;99463.72;5574592;31;34456;-73
2022/11/16 06:59:35;;;;;;;;;;;;;;;7.09;100.00;99456.28;5577428;31;34879;-73
2022/11/16 07:02:38;;;;;;;;;;;;;;;7.08;100.00;99444.06;5590667;31;35008;-73
2022/11/16 07:05:41;;;;;;;;;;;;;;;7.07;100.00;99446.91;5589802;31;34232;-73
2022/11/16 07:08:46;;;;;;;;;;;;;;;7.02;100.00;99443.94;5575937;31;35133;-74
2022/11/16 07:11:50;;;;;;;;;;;;;;;6.98;100.00;99444.25;5590827;31;34312;-73
2022/11/16 07:14:53;;;;;;;;;;;;;;;7.08;100.00;99436.16;5591154;31;34393;-74
2022/11/16 07:18:05;;;;;;;;;;;;;;;7.26;100.00;99436.75;5576950;31;34745;-73
2022/11/16 07:21:09;;;;;;;;;;;;;;;7.25;100.00;99439.59;5576636;31;35793;-72
2022/11/16 07:24:12;;;;;;;;;;;;;;;7.20;100.00;99442.75;5576915;31;33550;-73
2022/11/16 07:27:14;;;;;;;;;;;;;;;7.26;100.00;99443.88;5577067;31;34166;-73
2022/11/16 07:30:18;;;;;;;;;;;;;;;7.33;100.00;99440.38;5591051;31;34871;-73
2022/11/16 07:33:21;;;;;;;;;;;;;;;7.36;100.00;99436.56;5576462;31;34321;-75
2022/11/16 07:36:26;;;;;;;;;;;;;;;7.34;100.00;99435.94;5591123;31;34905;-74
2022/11/16 07:39:29;;;;;;;;;;;;;;;7.38;100.00;99430.16;5577015;31;35056;-74
2022/11/16 07:42:32;;;;;;;;;;;;;;;7.42;100.00;99427.97;5576556;31;33991;-74
2022/11/16 07:45:34;;;;;;;;;;;;;;;7.43;100.00;99425.19;5576274;31;32815;-73
2022/11/16 07:48:38;;;;;;;;;;;;;;;7.19;100.00;99427.06;5576909;31;34802;-73
2022/11/16 07:51:46;;;;;;;;;;;;;;;7.25;100.00;99427.22;5590919;31;34172;-74
2022/11/16 07:54:50;;;;;;;;;;;;;;;7.18;100.00;99415.69;5591174;31;34450;-74
2022/11/16 07:57:54;;;;;;;;;;;;;;;7.14;100.00;99413.56;5576867;31;35169;-74
2022/11/16 08:01:03;;;;;;;;;;;;;;;7.13;100.00;99420.66;5590594;31;34658;-74
2022/11/16 08:04:06;;;;;;;;;;;;;;;7.26;100.00;99413.03;5590509;31;35101;-74
2022/11/16 08:07:10;;;;;;;;;;;;;;;7.47;100.00;99406.34;5590291;31;34920;-74
2022/11/16 08:10:14;;;;;;;;;;;;;;;7.57;100.00;99404.34;5589973;31;34717;-74
2022/11/16 08:13:16;;;;;;;;;;;;;;;7.60;100.00;99394.25;5576186;31;34202;-74
2022/11/16 08:16:20;;;;;;;;;;;;;;;7.44;100.00;99399.63;5590446;31;34792;-74
2022/11/16 08:19:24;;;;;;;;;;;;;;;7.43;100.00;99403.25;5590342;31;34860;-74
2022/11/16 08:22:28;;;;;;;;;;;;;;;7.37;100.00;99409.19;5576321;31;35151;-74
2022/11/16 08:25:31;;;;;;;;;;;;;;;7.43;100.00;99404.06;5576360;31;34658;-73
2022/11/16 08:28:35;;;;;;;;;;;;;;;7.33;100.00;99403.44;5576057;31;34529;-74
2022/11/16 08:31:38;;;;;;;;;;;;;;;7.33;100.00;99400.81;5576075;31;34127;-74
2022/11/16 08:34:41;;;;;;;;;;;;;;;7.42;100.00;99397.16;5576919;31;34442;-73
2022/11/16 08:37:44;;;;;;;;;;;;;;;7.50;100.00;99398.94;5590265;31;34291;-75
2022/11/16 08:40:49;;;;;;;;;;;;;;;7.31;100.00;99400.16;5590706;31;34582;-76
2022/11/16 08:43:53;;;;;;;;;;;;;;;7.37;100.00;99403.91;5577066;31;34757;-75
2022/11/16 08:46:57;;;;;;;;;;;;;;;7.56;100.00;99398.22;5590396;31;34856;-76
2022/11/16 08:50:00;;;;;;;;;;;;;;;7.48;100.00;99397.44;5590752;31;34494;-75
2022/11/16 08:53:03;;;;;;;;;;;;;;;7.48;100.00;99393.00;5590244;31;34878;-75
2022/11/16 08:56:12;;;;;;;;;;;;;;;7.61;100.00;99395.91;5576780;31;34428;-76
2022/11/16 08:59:15;;;;;;;;;;;;;;;7.57;100.00;99393.78;5590078;31;34366;-76
2022/11/16 09:02:24;;;;;;;;;;;;;;;7.58;100.00;99395.44;5590464;31;34498;-76
2022/11/16 09:05:28;;;;;;;;;;;;;;;7.52;100.00;99389.00;5590027;31;34874;-76
2022/11/16 09:08:31;;;;;;;;;;;;;;;7.68;100.00;99394.22;5576482;31;35032;-75
2022/11/16 09:11:34;;;;;;;;;;;;;;;7.58;100.00;99383.06;5590016;31;34886;-76
2022/11/16 09:14:37;;;;;;;;;;;;;;;7.64;100.00;99392.94;5575742;31;34660;-75
2022/11/16 09:17:40;;;;;;;;;;;;;;;7.80;100.00;99378.78;5590044;31;34860;-76
2022/11/16 09:20:44;;;;;;;;;;;;;;;7.93;100.00;99376.44;5589552;31;34163;-75
2022/11/16 09:23:47;;;;;;;;;;;;;;;7.90;100.00;99382.03;5589979;31;34779;-76
2022/11/16 09:26:50;;;;;;;;;;;;;;;7.81;100.00;99376.00;5590155;31;34882;-76
2022/11/16 09:29:53;;;;;;;;;;;;;;;7.73;100.00;99375.22;5562693;31;33609;-76
2022/11/16 09:32:57;;;;;;;;;;;;;;;7.78;100.00;99386.91;5562706;31;34349;-76
2022/11/16 09:36:05;;;;;;;;;;;;;;;7.88;100.00;99384.03;5589922;31;35078;-76
2022/11/16 09:39:11;;;;;;;;;;;;;;;7.99;100.00;99380.97;5575855;31;34228;-76
2022/11/16 09:42:42;;;;;;;;;;;;;;;8.02;100.00;99371.91;5589754;31;34294;-75
2022/11/16 09:45:51;;;;;;;;;;;;;;;8.12;100.00;99360.09;5589962;31;34841;-76
2022/11/16 09:48:59;;;;;;;;;;;;;;;8.18;100.00;99355.94;5589621;31;34213;-75
2022/11/16 09:52:05;;;;;;;;;;;;;;;8.10;100.00;99346.25;5575207;31;35786;-76
2022/11/16 09:55:33;;;;;;;;;;;;;;;8.08;100.00;99353.53;5589556;31;34872;-75
2022/11/16 09:58:55;;;;;;;;;;;;;;;8.00;100.00;99353.56;5573233;31;35644;-75
2022/11/16 10:02:15;;;;;;;;;;;;;;;8.17;100.00;99341.91;5589800;31;34336;-76
2022/11/16 10:05:24;;;;;;;;;;;;;;;8.26;100.00;99335.56;5562765;31;34269;-76
2022/11/16 10:08:27;;;;;;;;;;;;;;;8.13;100.00;99332.66;5575226;31;32852;-75
2022/11/16 10:11:41;;;;;;;;;;;;;;;7.98;100.00;99331.00;5589831;31;34267;-75
2022/11/16 10:15:06;;;;;;;;;;;;;;;8.20;100.00;99317.75;5589595;31;34178;-75
2022/11/16 10:18:31;;;;;;;;;;;;;;;8.14;100.00;99317.63;5575649;31;34658;-75
2022/11/16 10:21:44;;;;;;;;;;;;;;;8.07;100.00;99317.56;5575083;31;34138;-75
2022/11/16 10:24:49;;;;;;;;;;;;;;;8.21;100.00;99311.47;5575326;31;34579;-75
2022/11/16 10:27:52;;;;;;;;;;;;;;;8.34;100.00;99302.97;5588972;31;34861;-75
2022/11/16 10:31:15;;;;;;;;;;;;;;;8.29;100.00;99295.59;5588236;31;34191;-75
2022/11/16 10:34:20;;;;;;;;;;;;;;;8.18;100.00;99290.69;5588837;31;34401;-76
2022/11/16 10:37:28;;;;;;;;;;;;;;;8.06;100.00;99289.50;5589460;31;34080;-76
2022/11/16 10:40:37;;;;;;;;;;;;;;;7.99;100.00;99291.19;5588896;31;34475;-76
2022/11/16 10:43:41;;;;;;;;;;;;;;;8.13;100.00;99286.97;5589070;31;34864;-76
2022/11/16 10:46:51;;;;;;;;;;;;;;;8.28;100.00;99282.50;5575237;31;34795;-75
2022/11/16 10:49:59;;;;;;;;;;;;;;;8.05;100.00;99284.37;5562187;31;33159;-76
2022/11/16 10:53:03;;;;;;;;;;;;;;;8.18;100.00;99282.75;5589408;31;34194;-76
2022/11/16 10:56:18;;;;;;;;;;;;;;;8.36;100.00;99273.72;5589043;31;34278;-75
2022/11/16 10:59:21;;;;;;;;;;;;;;;8.36;100.00;99273.72;5588671;31;35066;-75
2022/11/16 11:02:35;;;;;;;;;;;;;;;8.25;100.00;99259.91;5577343;31;32744;-74
2022/11/16 11:05:51;;;;;;;;;;;;;;;8.16;100.00;99262.81;5588736;31;34459;-77
2022/11/16 11:08:54;;;;;;;;;;;;;;;8.15;100.00;99250.59;5588743;31;34156;-75
2022/11/16 11:15:19;;;;;;;;;;;;;;;8.10;100.00;99242.41;5588542;31;34167;-74
2022/11/16 11:18:30;;;;;;;;;;;;;;;8.24;100.00;99229.22;5588219;31;34320;-75
2022/11/16 11:21:33;;;;;;;;;;;;;;;8.29;100.00;99226.03;5574611;31;35077;-74
2022/11/16 11:24:38;;;;;;;;;;;;;;;8.21;100.00;99229.59;5588147;31;35123;-76
2022/11/16 11:27:48;;;;;;;;;;;;;;;8.22;100.00;99228.59;5588266;31;34602;-76
2022/11/16 11:30:55;;;;;;;;;;;;;;;8.38;100.00;99216.22;5574436;31;33043;-75
2022/11/16 11:34:14;;;;;;;;;;;;;;;8.46;100.00;99213.50;5588147;31;34339;-75
2022/11/16 11:37:25;;;;;;;;;;;;;;;8.37;100.00;99217.25;5587956;31;34706;-76
2022/11/16 11:40:31;;;;;;;;;;;;;;;8.19;100.00;99209.63;5587999;31;34340;-76
2022/11/16 11:43:36;;;;;;;;;;;;;;;8.07;100.00;99206.63;5576058;31;33194;-75
2022/11/16 11:46:45;;;;;;;;;;;;;;;8.09;100.00;99206.41;5590879;31;34887;-75
2022/11/16 11:50:25;;;;;;;;;;;;;;;8.23;100.00;99197.69;5579482;31;34757;-75
2022/11/16 11:53:42;;;;;;;;;;;;;;;8.21;100.00;99192.59;5590947;31;34237;-76
2022/11/16 11:56:45;;;;;;;;;;;;;;;8.27;100.00;99191.88;5590795;31;34167;-75
2022/11/16 11:59:50;;;;;;;;;;;;;;;8.45;100.00;99188.06;5577105;31;34184;-76
2022/11/16 12:02:53;;;;;;;;;;;;;;;8.56;100.00;99187.63;5576903;31;35281;-75
2022/11/16 12:05:56;;;;;;;;;;;;;;;8.34;100.00;99189.34;5590856;31;34803;-76
2022/11/16 12:08:58;;;;;;;;;;;;;;;8.16;100.00;99187.03;5590792;31;34919;-75
2022/11/16 12:12:11;;;;;;;;;;;;;;;8.09;100.00;99194.03;5590610;31;34641;-75
2022/11/16 12:15:25;;;;;;;;;;;;;;;8.14;100.00;99182.91;5576504;31;34876;-75
2022/11/16 12:18:31;;;;;;;;;;;;;;;7.99;100.00;99190.03;5590437;31;34288;-75
2022/11/16 12:21:45;;;;;;;;;;;;;;;8.02;100.00;99181.75;5576884;31;35914;-77
2022/11/16 12:24:48;;;;;;;;;;;;;;;8.03;100.00;99186.84;5563731;31;35402;-76
2022/11/16 12:27:50;;;;;;;;;;;;;;;7.99;100.00;99185.53;5590342;31;34685;-76
2022/11/16 12:31:11;;;;;;;;;;;;;;;7.96;100.00;99187.72;5576788;31;33523;-76
2022/11/16 12:34:34;;;;;;;;;;;;;;;7.95;100.00;99180.81;5590438;31;34362;-75
2022/11/16 12:38:00;;;;;;;;;;;;;;;7.96;100.00;99183.28;5576431;31;34632;-75
2022/11/16 12:41:09;;;;;;;;;;;;;;;7.92;100.00;99179.34;5590383;31;34310;-77
2022/11/16 12:44:18;;;;;;;;;;;;;;;7.94;100.00;99174.69;5590766;31;34822;-76
2022/11/16 12:47:39;;;;;;;;;;;;;;;8.01;100.00;99170.34;5590017;31;34542;-77
2022/11/16 12:50:51;;;;;;;;;;;;;;;7.95;100.00;99167.59;5590866;31;34191;-76
2022/11/16 12:54:02;;;;;;;;;;;;;;;7.91;100.00;99164.50;5589667;31;34342;-77
2022/11/16 12:57:14;;;;;;;;;;;;;;;7.90;100.00;99164.69;5576941;31;34327;-78
2022/11/16 13:00:17;;;;;;;;;;;;;;;7.90;100.00;99160.22;5576596;31;35473;-78
2022/11/16 13:03:32;;;;;;;;;;;;;;;7.96;100.00;99158.69;5590971;31;34187;-78
2022/11/16 13:06:41;;;;;;;;;;;;;;;8.01;100.00;99154.50;5576384;31;32729;-77
2022/11/16 13:09:54;;;;;;;;;;;;;;;8.01;100.00;99159.78;5590447;31;34812;-78
2022/11/16 13:12:59;;;;;;;;;;;;;;;7.99;100.00;99159.12;5590443;31;34644;-78
2022/11/16 13:16:23;;;;;;;;;;;;;;;8.02;100.00;99152.69;5576950;31;34178;-78
2022/11/16 13:19:25;;;;;;;;;;;;;;;8.02;100.00;99155.31;5563656;31;34085;-78
2022/11/16 13:22:30;;;;;;;;;;;;;;;7.95;100.00;99155.22;5590821;31;34899;-78
2022/11/16 13:25:44;;;;;;;;;;;;;;;8.03;100.00;99149.06;5565704;31;35538;-77
2022/11/16 13:28:47;;;;;;;;;;;;;;;8.09;100.00;99153.59;5590193;31;34221;-78
2022/11/16 13:31:49;;;;;;;;;;;;;;;8.02;100.00;99147.41;5591026;31;34248;-79
2022/11/16 13:34:53;;;;;;;;;;;;;;;7.95;100.00;99151.75;5590662;31;34499;-79
2022/11/16 13:37:55;;;;;;;;;;;;;;;7.93;100.00;99149.31;5575928;31;35242;-78
2022/11/16 13:41:16;;;;;;;;;;;;;;;7.94;100.00;99144.84;5576089;31;33582;-78
2022/11/16 13:44:19;;;;;;;;;;;;;;;7.95;100.00;99143.84;5590251;31;34192;-78
2022/11/16 13:47:24;;;;;;;;;;;;;;;7.98;100.00;99151.41;5591031;31;34888;-79
2022/11/16 13:50:30;;;;;;;;;;;;;;;7.95;100.00;99146.47;5563788;31;33093;-78
2022/11/16 13:53:45;;;;;;;;;;;;;;;8.02;100.00;99142.13;5576910;31;34483;-78
2022/11/16 13:57:30;;;;;;;;;;;;;;;8.01;100.00;99143.12;5566155;31;35346;-78
2022/11/16 14:00:38;;;;;;;;;;;;;;;7.98;100.00;99140.84;5576380;31;34174;-77
2022/11/16 14:03:43;;;;;;;;;;;;;;;7.94;100.00;99143.00;5589875;31;34448;-77
2022/11/16 14:06:46;;;;;;;;;;;;;;;7.90;100.00;99135.62;5588790;31;34369;-77
2022/11/16 14:09:49;;;;;;;;;;;;;;;7.93;100.00;99133.47;5589730;31;34811;-75
2022/11/16 14:12:52;;;;;;;;;;;;;;;7.89;100.00;99126.09;5589365;31;34955;-77
2022/11/16 14:16:14;;;;;;;;;;;;;;;7.93;100.00;99132.66;5589619;31;34387;-76
2022/11/16 14:19:36;;;;;;;;;;;;;;;7.93;100.00;99132.66;5589553;31;35672;-76
2022/11/16 14:22:51;;;;;;;;;;;;;;;7.90;100.00;99127.72;5562454;31;32764;-75
2022/11/16 14:25:54;;;;;;;;;;;;;;;7.92;100.00;99120.44;5575749;31;34338;-76
2022/11/16 14:29:15;;;;;;;;;;;;;;;7.90;100.00;99123.25;5562454;31;33082;-76
2022/11/16 14:32:20;;;;;;;;;;;;;;;7.93;100.00;99115.00;5589176;31;34856;-76
2022/11/16 14:35:28;;;;;;;;;;;;;;;7.87;100.00;99116.53;5575229;31;32588;-76
2022/11/16 14:38:32;;;;;;;;;;;;;;;7.90;100.00;99117.16;5575901;31;34239;-77
2022/11/16 14:41:35;;;;;;;;;;;;;;;7.80;100.00;99114.78;5588968;31;34250;-76
2022/11/16 14:44:38;;;;;;;;;;;;;;;7.83;100.00;99112.62;5574863;31;34792;-76
2022/11/16 14:47:41;;;;;;;;;;;;;;;7.82;100.00;99118.06;5574672;31;34658;-73
2022/11/16 14:50:46;;;;;;;;;;;;;;;7.82;100.00;99115.44;5574452;31;33102;-75
2022/11/16 14:53:51;;;;;;;;;;;;;;;7.80;100.00;99114.78;5574566;31;35322;-74
2022/11/16 14:57:04;;;;;;;;;;;;;;;7.77;100.00;99110.69;5589039;31;34270;-76
2022/11/16 15:00:17;;;;;;;;;;;;;;;7.83;100.00;99109.97;5561669;31;33502;-77
2022/11/16 15:03:20;;;;;;;;;;;;;;;7.80;100.00;99107.69;5588715;31;34276;-76
2022/11/16 15:06:24;;;;;;;;;;;;;;;7.81;100.00;99097.94;5574777;31;32776;-75
2022/11/16 15:09:32;;;;;;;;;;;;;;;7.80;100.00;99097.12;5588325;31;34602;-76
2022/11/16 15:12:40;;;;;;;;;;;;;;;7.82;100.00;99097.78;5561129;31;33005;-75
2022/11/16 15:15:43;;;;;;;;;;;;;;;7.77;100.00;99089.56;5573668;31;34500;-75
2022/11/16 15:19:00;;;;;;;;;;;;;;;7.77;100.00;99092.22;5589644;31;34336;-75
2022/11/16 15:22:03;;;;;;;;;;;;;;;7.76;100.00;99089.75;5590567;31;34685;-76
2022/11/16 15:25:21;;;;;;;;;;;;;;;7.74;100.00;99092.59;5576677;31;34876;-77
2022/11/16 15:28:29;;;;;;;;;;;;;;;7.78;100.00;99090.41;5576924;31;35169;-76
2022/11/16 15:31:33;;;;;;;;;;;;;;;7.78;100.00;99085.13;5590677;31;34277;-77
2022/11/16 15:34:37;;;;;;;;;;;;;;;7.78;100.00;99080.66;5576866;31;34507;-75
2022/11/16 15:37:40;;;;;;;;;;;;;;;7.78;100.00;99082.47;5576396;31;34228;-75
2022/11/16 15:40:45;;;;;;;;;;;;;;;7.77;100.00;99084.28;5590546;31;34158;-75
2022/11/16 15:43:53;;;;;;;;;;;;;;;7.75;100.00;99074.91;5590278;31;34784;-76
2022/11/16 15:47:16;;;;;;;;;;;;;;;7.81;100.00;99084.75;5576704;31;35704;-75
2022/11/16 15:50:24;;;;;;;;;;;;;;;7.84;100.00;99079.91;5575979;31;34556;-76
2022/11/16 15:53:33;;;;;;;;;;;;;;;7.81;100.00;99080.28;5590466;31;34460;-76
2022/11/16 15:56:37;;;;;;;;;;;;;;;7.84;100.00;99084.41;5590611;31;34505;-75
2022/11/16 15:59:47;;;;;;;;;;;;;;;7.77;100.00;99083.47;5576684;31;34133;-76
2022/11/16 16:02:51;;;;;;;;;;;;;;;7.75;100.00;99083.62;5576936;31;34919;-76
2022/11/16 16:05:57;;;;;;;;;;;;;;;7.73;100.00;99080.38;5590455;31;34503;-76
2022/11/16 16:09:03;;;;;;;;;;;;;;;7.71;100.00;99077.09;5590516;31;34277;-76
2022/11/16 16:12:20;;;;;;;;;;;;;;;7.76;100.00;99072.09;5590511;31;34326;-76
2022/11/16 16:15:28;;;;;;;;;;;;;;;7.69;100.00;99070.38;5577024;31;34239;-76
2022/11/16 16:18:40;;;;;;;;;;;;;;;7.67;100.00;99070.53;5576184;31;33229;-76
2022/11/16 16:21:48;;;;;;;;;;;;;;;7.81;100.00;99074.19;5590457;31;34912;-75
2022/11/16 16:24:56;;;;;;;;;;;;;;;7.78;100.00;99067.47;5576317;31;34885;-76
2022/11/16 16:28:02;;;;;;;;;;;;;;;7.75;100.00;99066.97;5575759;31;35670;-75
2022/11/16 16:31:09;;;;;;;;;;;;;;;7.70;100.00;99062.25;5589232;31;34830;-74
2022/11/16 16:34:15;;;;;;;;;;;;;;;7.75;100.00;99065.16;5590277;31;34281;-75
2022/11/16 16:37:24;;;;;;;;;;;;;;;7.73;100.00;99074.28;5576384;31;35378;-75
2022/11/16 16:40:32;;;;;;;;;;;;;;;7.79;100.00;99070.91;5590044;31;34266;-75
2022/11/16 16:43:38;;;;;;;;;;;;;;;7.81;100.00;99074.19;5563627;31;34181;-75
2022/11/16 16:46:46;;;;;;;;;;;;;;;7.81;100.00;99068.91;5590228;31;34398;-75
2022/11/16 16:49:54;;;;;;;;;;;;;;;7.75;100.00;99066.97;5590607;31;34684;-76
2022/11/16 16:53:00;;;;;;;;;;;;;;;7.80;100.00;99064.63;5575789;31;34468;-76
2022/11/16 16:56:05;;;;;;;;;;;;;;;7.82;100.00;99059.97;5576135;31;35763;-76
2022/11/16 16:59:08;;;;;;;;;;;;;;;7.73;100.00;99067.19;5576222;31;34366;-75
2022/11/16 17:02:11;;;;;;;;;;;;;;;7.91;100.00;99063.34;5589947;31;34429;-76
2022/11/16 17:05:15;;;;;;;;;;;;;;;7.85;100.00;99064.88;5590550;31;34300;-75
2022/11/16 17:08:21;;;;;;;;;;;;;;;7.78;100.00;99067.47;5576846;31;34131;-76